Time;durP1;ratioP1;P1;durP2;ratioP2;P2;SDS_P1;SDS_P2;PMS_P1;PMS_P2;Temp;Humidity;BMP_temperature;BMP_pressure;BME280_temperature;BME280_humidity;BME280_pressure;Samples;Min_cycle;Max_cycle;Signal;HPM_P1;HPM_P2
2023/03/06 00:01:20;;;;;;;9.32;5.43;;;;;;;6.51;67.82;101054.06;4972085;28;20034;-47
2023/03/06 00:03:45;;;;;;;9.07;5.38;;;;;;;6.54;67.92;101050.69;4963412;28;20039;-43
2023/03/06 00:06:10;;;;;;;9.73;5.50;;;;;;;6.60;67.64;101044.81;4965080;28;20637;-43
2023/03/06 00:08:36;;;;;;;10.10;5.50;;;;;;;6.61;67.56;101041.41;4966494;28;20037;-48
2023/03/06 00:11:01;;;;;;;10.02;5.50;;;;;;;6.55;67.55;101043.78;4962145;28;20085;-44
2023/03/06 00:13:28;;;;;;;9.57;5.03;;;;;;;6.60;67.57;101039.63;4965242;28;20111;-48
2023/03/06 00:15:57;;;;;;;9.05;4.88;;;;;;;6.57;67.41;101029.19;4962086;28;20536;-44
2023/03/06 00:18:23;;;;;;;8.27;4.80;;;;;;;6.56;67.73;101030.91;4965908;28;20039;-44
2023/03/06 00:20:48;;;;;;;8.43;4.70;;;;;;;6.63;67.46;101030.28;4963357;28;20066;-47
2023/03/06 00:23:13;;;;;;;8.82;4.75;;;;;;;6.57;67.79;101029.19;4968841;28;20405;-45
2023/03/06 00:25:43;;;;;;;6.65;4.32;;;;;;;6.68;67.63;101022.63;4968263;28;20031;-48
2023/03/06 00:28:08;;;;;;;7.72;4.55;;;;;;;6.71;67.41;101015.81;4964156;28;20066;-43
2023/03/06 00:30:34;;;;;;;7.95;3.95;;;;;;;6.71;67.30;101018.41;4964947;28;20059;-44
2023/03/06 00:32:59;;;;;;;7.82;4.53;;;;;;;6.70;67.63;101019.28;4960685;28;20046;-43
2023/03/06 00:35:24;;;;;;;7.13;4.25;;;;;;;6.67;67.43;101013.97;4964399;28;20174;-44
2023/03/06 00:37:50;;;;;;;7.28;4.40;;;;;;;6.76;67.80;101008.22;4960755;28;20066;-44
2023/03/06 00:40:20;;;;;;;6.47;4.13;;;;;;;6.80;67.36;101004.88;5014355;23;20042;-79
2023/03/06 00:42:48;;;;;;;6.53;3.97;;;;;;;6.53;68.78;101002.28;4999103;28;20069;-80
2023/03/06 00:45:14;;;;;;;7.30;3.80;;;;;;;6.54;68.91;101004.06;5004538;28;20483;-78
2023/03/06 00:47:40;;;;;;;11.15;4.40;;;;;;;6.64;68.51;100997.47;5004759;28;20475;-82
2023/03/06 00:50:07;;;;;;;7.13;4.10;;;;;;;6.80;68.24;100994.50;5000477;28;20038;-80
2023/03/06 00:52:44;;;;;;;5.10;3.20;;;;;;;6.60;68.90;100999.06;4986383;28;20461;-81
2023/03/06 00:55:10;;;;;;;4.90;2.85;;;;;;;6.70;68.76;100987.31;4997784;28;20058;-80
2023/03/06 00:57:36;;;;;;;6.72;2.72;;;;;;;6.91;67.77;100986.22;4983852;28;20073;-80
2023/03/06 01:00:08;;;;;;;6.40;2.70;;;;;;;6.93;67.01;100988.88;4997571;28;20042;-78
2023/03/06 01:02:34;;;;;;;5.28;2.75;;;;;;;6.85;67.05;100978.25;5000869;28;20034;-78
2023/03/06 01:05:03;;;;;;;5.18;2.78;;;;;;;6.64;67.86;100975.03;4997905;28;20038;-79
2023/03/06 01:07:32;;;;;;;5.20;2.70;;;;;;;6.63;67.43;100969.81;5003075;28;20442;-79
2023/03/06 01:09:57;;;;;;;4.30;2.60;;;;;;;6.59;67.92;100968.81;4998550;28;20037;-79
2023/03/06 01:12:22;;;;;;;4.93;2.70;;;;;;;6.57;67.67;100972.22;5001898;28;20038;-77
2023/03/06 01:14:51;;;;;;;5.50;3.00;;;;;;;6.47;67.89;100976.19;4982846;28;20431;-81
2023/03/06 01:17:16;;;;;;;5.63;2.70;;;;;;;6.41;68.13;100966.53;5006462;28;20034;-80
2023/03/06 01:19:45;;;;;;;5.28;2.65;;;;;;;6.43;67.46;100964.88;5005404;28;20122;-80
2023/03/06 01:22:22;;;;;;;6.88;2.70;;;;;;;6.24;68.56;100962.53;5002195;28;20026;-79
2023/03/06 01:24:47;;;;;;;5.30;2.17;;;;;;;6.13;68.93;100966.50;5002125;28;20038;-80
2023/03/06 01:27:19;;;;;;;4.63;2.65;;;;;;;6.01;69.69;100968.69;5005157;28;20118;-79
2023/03/06 01:29:44;;;;;;;4.70;2.30;;;;;;;6.07;69.38;100968.88;5004802;28;20045;-80
2023/03/06 01:32:24;;;;;;;5.88;2.30;;;;;;;6.16;69.33;100971.75;4983023;28;20407;-80
2023/03/06 01:34:53;;;;;;;3.60;2.10;;;;;;;6.21;69.04;100970.22;4983790;28;20038;-81
2023/03/06 01:37:24;;;;;;;4.03;2.10;;;;;;;6.26;68.45;100955.72;5004618;28;20034;-80
2023/03/06 01:39:49;;;;;;;3.92;2.08;;;;;;;6.27;68.36;100961.78;4982728;28;20061;-78
2023/03/06 01:42:21;;;;;;;4.32;2.25;;;;;;;6.26;68.09;100963.47;4987770;28;20101;-79
2023/03/06 01:45:17;;;;;;;5.47;2.20;;;;;;;6.04;68.90;100950.66;5005075;28;20119;-79
2023/03/06 01:47:46;;;;;;;3.90;2.00;;;;;;;6.11;68.78;100956.09;5000887;28;20538;-78
2023/03/06 01:50:12;;;;;;;7.57;2.40;;;;;;;6.08;69.06;100944.75;4982582;28;20186;-79
2023/03/06 01:52:49;;;;;;;4.28;2.05;;;;;;;5.99;69.70;100949.63;5004367;28;20529;-79
2023/03/06 01:55:25;;;;;;;3.58;1.85;;;;;;;6.16;69.04;100939.84;5005893;28;20030;-79
2023/03/06 01:57:56;;;;;;;3.80;1.80;;;;;;;6.15;69.14;100940.66;4998586;28;20076;-80
2023/03/06 02:00:24;;;;;;;4.38;1.80;;;;;;;6.14;69.25;100938.91;4985200;28;20022;-82
2023/03/06 02:02:57;;;;;;;5.65;1.70;;;;;;;6.12;69.08;100931.09;5001788;28;20042;-80
2023/03/06 02:05:25;;;;;;;2.17;1.45;;;;;;;6.22;69.17;100934.84;4988068;28;20038;-79
2023/03/06 02:07:53;;;;;;;3.67;1.60;;;;;;;6.21;69.16;100941.75;5002512;28;20058;-79
2023/03/06 02:10:28;;;;;;;6.78;1.60;;;;;;;6.43;69.03;100930.34;5004834;28;20034;-80
2023/03/06 02:12:56;;;;;;;3.00;1.35;;;;;;;6.46;68.64;100935.63;5000492;28;20038;-79
2023/03/06 02:15:27;;;;;;;3.53;1.52;;;;;;;6.18;69.74;100923.50;4987526;28;20038;-79
2023/03/06 02:17:53;;;;;;;4.22;1.45;;;;;;;6.47;68.95;100920.09;4999671;28;20402;-78
2023/03/06 02:20:42;;;;;;;3.90;1.30;;;;;;;6.63;68.72;100916.28;4987954;28;20618;-79
2023/03/06 02:23:32;;;;;;;2.97;1.30;;;;;;;6.64;68.34;100912.00;5000082;28;20034;-78
2023/03/06 02:25:59;;;;;;;6.40;1.50;;;;;;;6.59;68.76;100916.16;4999660;28;20068;-79
2023/03/06 02:28:24;;;;;;;4.30;1.30;;;;;;;6.76;68.34;100914.94;4986724;28;20521;-79
2023/03/06 02:30:53;;;;;;;3.40;1.20;;;;;;;6.76;68.07;100910.63;5000862;28;20038;-78
2023/03/06 02:33:23;;;;;;;2.95;1.13;;;;;;;6.88;67.68;100897.16;5005123;28;20089;-80
2023/03/06 02:36:02;;;;;;;5.03;1.40;;;;;;;6.81;67.69;100892.63;5000664;28;20492;-78
2023/03/06 02:38:35;;;;;;;5.35;1.50;;;;;;;6.90;67.37;100885.09;4977850;28;20037;-78
2023/03/06 02:41:06;;;;;;;3.10;1.40;;;;;;;6.97;67.25;100887.03;4999463;28;20091;-82
2023/03/06 02:43:38;;;;;;;2.50;1.20;;;;;;;6.82;67.25;100882.31;5005761;28;20045;-80
2023/03/06 02:46:10;;;;;;;3.83;1.40;;;;;;;6.80;67.23;100878.78;4976053;28;20040;-81
2023/03/06 02:48:44;;;;;;;2.45;1.42;;;;;;;6.73;67.39;100876.84;4988353;28;20372;-80
2023/03/06 02:51:13;;;;;;;4.40;1.50;;;;;;;6.80;67.13;100873.59;5004964;28;20037;-79
2023/03/06 02:53:41;;;;;;;2.97;1.40;;;;;;;6.70;67.34;100858.66;4990623;28;20407;-79
2023/03/06 02:56:07;;;;;;;4.43;1.60;;;;;;;6.76;67.05;100857.94;5005631;28;24546;-79
2023/03/06 02:58:36;;;;;;;4.18;1.45;;;;;;;6.78;67.08;100857.13;5010961;28;20042;-80
2023/03/06 03:01:04;;;;;;;2.38;1.20;;;;;;;6.82;66.91;100859.00;5006388;28;20064;-80
2023/03/06 03:03:30;;;;;;;3.60;1.60;;;;;;;6.76;67.13;100856.22;4997325;28;20144;-86
2023/03/06 03:05:55;;;;;;;3.38;1.50;;;;;;;6.72;67.46;100853.47;4990958;28;20113;-82
2023/03/06 03:08:24;;;;;;;3.63;1.70;;;;;;;6.83;67.42;100858.13;5005101;28;20084;-81
2023/03/06 03:10:50;;;;;;;3.55;1.70;;;;;;;6.91;67.13;100856.63;4988266;28;20053;-81
2023/03/06 03:13:19;;;;;;;4.25;1.80;;;;;;;7.01;67.33;100855.19;5006632;28;20040;-80
2023/03/06 03:16:21;;;;;;;4.35;1.77;;;;;;;6.82;67.17;100860.69;4988002;28;20123;-80
2023/03/06 03:18:50;;;;;;;3.70;1.90;;;;;;;6.83;67.40;100857.28;4998726;28;20034;-80
2023/03/06 03:21:18;;;;;;;5.57;1.70;;;;;;;6.50;68.07;100860.66;5004898;28;20030;-80
2023/03/06 03:23:44;;;;;;;4.50;1.92;;;;;;;6.66;68.04;100861.06;5004524;28;20029;-78
2023/03/06 03:26:18;;;;;;;4.18;1.80;;;;;;;6.44;68.26;100857.00;5000270;28;20368;-79
2023/03/06 03:28:44;;;;;;;6.93;1.70;;;;;;;6.41;68.62;100851.72;5003616;28;20100;-80
2023/03/06 03:31:15;;;;;;;2.80;1.77;;;;;;;6.22;69.23;100852.88;4999483;28;20049;-80
2023/03/06 03:33:40;;;;;;;4.43;1.90;;;;;;;6.60;68.53;100845.34;5003373;28;20398;-78
2023/03/06 03:36:09;;;;;;;5.35;1.90;;;;;;;6.49;68.31;100838.16;4981278;28;20038;-78
2023/03/06 03:38:35;;;;;;;4.38;1.60;;;;;;;6.42;68.89;100837.94;4984199;28;20034;-79
2023/03/06 03:41:06;;;;;;;3.78;1.70;;;;;;;6.59;68.29;100828.09;4998137;28;20034;-78
2023/03/06 03:43:31;;;;;;;5.10;1.50;;;;;;;6.47;68.67;100821.69;5002321;28;20041;-80
2023/03/06 03:45:57;;;;;;;4.38;1.77;;;;;;;6.75;68.25;100828.56;4997872;28;20038;-78
2023/03/06 03:48:22;;;;;;;3.60;1.83;;;;;;;6.81;67.88;100814.88;5003259;28;20030;-77
2023/03/06 03:50:48;;;;;;;5.55;1.80;;;;;;;6.76;68.13;100811.31;4981299;28;20423;-78
2023/03/06 03:53:13;;;;;;;3.17;1.35;;;;;;;6.93;68.00;100808.34;5002804;28;20045;-80
2023/03/06 03:55:47;;;;;;;5.55;1.50;;;;;;;6.77;68.02;100806.13;5002218;28;20038;-79
2023/03/06 03:58:16;;;;;;;;;;;;;;;6.82;68.02;100807.16;5000180;28;20037;-77
2023/03/06 04:00:41;;;;;;;2.33;1.05;;;;;;;7.01;67.34;100794.69;5004088;28;19945;-81
2023/03/06 04:03:16;;;;;;;2.38;1.10;;;;;;;6.80;67.80;100805.34;4998912;28;20034;-80
2023/03/06 04:05:44;;;;;;;2.53;1.00;;;;;;;6.75;67.81;100799.19;5003545;28;20051;-80
2023/03/06 04:08:13;;;;;;;2.33;1.23;;;;;;;7.10;67.19;100790.63;4998979;28;20091;-79
2023/03/06 04:10:52;;;;;;;4.32;1.25;;;;;;;7.29;66.52;100792.84;4985679;28;20038;-78
2023/03/06 04:13:21;;;;;;;4.57;1.42;;;;;;;7.10;66.68;100787.16;4999036;28;20494;-82
2023/03/06 04:15:48;;;;;;;4.85;1.70;;;;;;;7.14;67.55;100788.97;4997562;28;20273;-78
2023/03/06 04:18:15;;;;;;;6.25;1.65;;;;;;;6.89;67.55;100793.50;4984704;28;20029;-80
2023/03/06 04:20:42;;;;;;;2.83;1.70;;;;;;;6.88;67.68;100796.97;5001965;28;20038;-79
2023/03/06 04:23:08;;;;;;;5.15;1.95;;;;;;;6.90;67.56;100797.88;4997976;28;20956;-80
2023/03/06 04:25:33;;;;;;;5.07;2.10;;;;;;;6.86;68.29;100803.81;4984923;28;20040;-78
2023/03/06 04:27:58;;;;;;;6.03;2.17;;;;;;;7.15;67.68;100788.13;4979744;28;20455;-78
2023/03/06 04:30:24;;;;;;;5.90;2.30;;;;;;;7.14;67.79;100781.19;4985226;28;20092;-79
2023/03/06 04:32:52;;;;;;;7.57;2.15;;;;;;;6.69;69.48;100781.75;4981252;28;20588;-77
2023/03/06 04:35:17;;;;;;;5.43;2.50;;;;;;;7.05;69.14;100773.19;5002306;28;20407;-78
2023/03/06 04:37:49;;;;;;;4.82;2.33;;;;;;;6.79;69.21;100773.38;5001672;28;20084;-78
2023/03/06 04:40:27;;;;;;;4.28;2.13;;;;;;;7.24;68.44;100765.94;4997616;28;20464;-79
2023/03/06 04:42:55;;;;;;;4.70;2.25;;;;;;;7.46;68.04;100761.25;4997331;28;20065;-80
2023/03/06 04:45:28;;;;;;;3.53;2.17;;;;;;;7.51;67.68;100752.75;5001681;28;20034;-81
2023/03/06 04:47:54;;;;;;;7.78;2.78;;;;;;;7.15;68.75;100760.50;4996945;28;20034;-79
2023/03/06 04:50:24;;;;;;;6.55;2.50;;;;;;;7.20;69.32;100758.91;5005854;28;20088;-77
2023/03/06 04:52:50;;;;;;;4.80;2.47;;;;;;;7.31;68.71;100772.16;5001769;28;20045;-80
2023/03/06 04:55:16;;;;;;;5.10;2.50;;;;;;;7.35;68.75;100766.19;5006538;28;20030;-79
2023/03/06 04:57:43;;;;;;;5.97;2.80;;;;;;;7.43;68.48;100767.25;4988331;28;20042;-79
2023/03/06 05:00:21;;;;;;;4.60;2.47;;;;;;;7.49;68.09;100764.81;4983428;28;20129;-80
2023/03/06 05:02:50;;;;;;;4.45;2.30;;;;;;;7.33;68.73;100762.66;4984157;28;20052;-79
2023/03/06 05:05:21;;;;;;;5.40;2.42;;;;;;;7.45;68.45;100762.97;4987658;28;20029;-80
2023/03/06 05:07:47;;;;;;;4.63;2.70;;;;;;;6.98;70.03;100760.91;5005941;28;20575;-80
2023/03/06 05:10:24;;;;;;;4.95;2.45;;;;;;;7.30;69.66;100757.44;5000431;28;20121;-78
2023/03/06 05:12:49;;;;;;;5.38;2.83;;;;;;;7.19;69.88;100757.16;5000418;28;20046;-80
2023/03/06 05:15:18;;;;;;;7.82;2.70;;;;;;;7.09;70.05;100762.06;5004680;28;20049;-78
2023/03/06 05:17:44;;;;;;;5.10;2.88;;;;;;;7.45;69.40;100746.53;4986976;28;20132;-81
2023/03/06 05:20:11;;;;;;;4.47;2.80;;;;;;;7.55;68.61;100751.13;4983381;28;20034;-80
2023/03/06 05:22:38;;;;;;;5.88;3.03;;;;;;;7.64;68.40;100752.19;4987200;28;20054;-80
2023/03/06 05:25:04;;;;;;;5.13;3.10;;;;;;;7.51;68.99;100752.75;4999573;28;20567;-77
2023/03/06 05:27:29;;;;;;;5.10;2.70;;;;;;;7.44;69.14;100756.03;5005078;28;20029;-80
2023/03/06 05:29:55;;;;;;;4.72;2.20;;;;;;;7.59;68.17;100748.63;4983818;28;20034;-80
2023/03/06 05:32:21;;;;;;;5.80;2.40;;;;;;;7.53;68.20;100748.47;4987656;28;20057;-80
2023/03/06 05:34:49;;;;;;;4.70;2.35;;;;;;;7.23;69.18;100750.31;5004389;28;20038;-79
2023/03/06 05:37:15;;;;;;;4.95;1.50;;;;;;;6.83;70.57;100762.25;5001176;28;20041;-82
2023/03/06 05:39:49;;;;;;;2.67;0.85;;;;;;;7.11;69.71;100763.00;4987045;28;20516;-78
2023/03/06 05:42:15;;;;;;;1.30;0.80;;;;;;;7.16;69.23;100757.06;5001010;28;20041;-81
2023/03/06 05:44:46;;;;;;;1.52;0.60;;;;;;;7.03;69.84;100762.78;4988036;28;20033;-79
2023/03/06 05:47:12;;;;;;;2.42;0.70;;;;;;;7.29;68.71;100760.84;5001202;28;20140;-81
2023/03/06 05:49:40;;;;;;;3.30;0.80;;;;;;;7.26;68.96;100758.16;4987809;28;20033;-78
2023/03/06 05:52:06;;;;;;;2.97;0.90;;;;;;;7.28;68.66;100754.78;4999970;28;20034;-79
2023/03/06 05:54:34;;;;;;;2.33;1.40;;;;;;;7.23;69.19;100750.31;4986482;28;20076;-79
2023/03/06 05:57:03;;;;;;;1.48;0.55;;;;;;;7.20;69.01;100747.66;4999859;28;20065;-79
2023/03/06 05:59:28;;;;;;;1.40;0.50;;;;;;;7.16;69.37;100745.81;5003742;28;20391;-78
2023/03/06 06:01:55;;;;;;;1.98;0.77;;;;;;;7.40;68.67;100751.63;4999373;28;20034;-78
2023/03/06 06:04:22;;;;;;;0.60;0.50;;;;;;;7.40;68.29;100751.63;5004413;28;20072;-79
2023/03/06 06:06:53;;;;;;;1.08;0.60;;;;;;;7.41;68.22;100745.59;4981826;28;20426;-78
2023/03/06 06:09:19;;;;;;;2.72;0.80;;;;;;;7.24;68.96;100747.78;4994721;28;20038;-79
2023/03/06 06:11:45;;;;;;;2.40;1.00;;;;;;;7.33;68.92;100742.81;5003905;28;20183;-79
2023/03/06 06:14:16;;;;;;;2.15;0.95;;;;;;;7.43;68.44;100749.09;4982951;28;20119;-81
2023/03/06 06:16:44;;;;;;;2.13;0.90;;;;;;;7.47;68.09;100750.94;4987446;28;20818;-78
2023/03/06 06:19:19;;;;;;;2.00;0.85;;;;;;;7.44;68.29;100756.03;4983126;28;20056;-79
2023/03/06 06:21:49;;;;;;;2.55;0.80;;;;;;;7.43;68.19;100750.81;4986060;28;20042;-81
2023/03/06 06:24:20;;;;;;;2.65;0.90;;;;;;;7.44;68.30;100748.25;5003192;28;20113;-82
2023/03/06 06:26:45;;;;;;;1.33;0.65;;;;;;;7.49;68.41;100748.38;5004860;28;20046;-79
2023/03/06 06:29:12;;;;;;;2.03;0.75;;;;;;;7.56;68.22;100755.47;4982786;28;20030;-79
2023/03/06 06:31:41;;;;;;;1.77;0.90;;;;;;;7.50;68.55;100750.13;5004593;28;20112;-78
2023/03/06 06:34:08;;;;;;;1.88;0.80;;;;;;;7.49;68.57;100757.03;4984726;28;20506;-79
2023/03/06 06:36:40;;;;;;;3.22;0.95;;;;;;;7.51;68.75;100754.44;5007808;28;20034;-81
2023/03/06 06:39:07;;;;;;;2.65;0.90;;;;;;;7.51;68.74;100750.16;5001735;28;20454;-80
2023/03/06 06:41:32;;;;;;;2.90;1.00;;;;;;;7.50;68.92;100761.34;4988514;28;20041;-78
2023/03/06 06:44:06;;;;;;;1.90;1.05;;;;;;;7.60;68.81;100758.16;4999257;28;20403;-79
2023/03/06 06:46:36;;;;;;;1.77;1.00;;;;;;;7.58;68.72;100761.53;5004337;28;20056;-80
2023/03/06 06:49:04;;;;;;;4.97;1.50;;;;;;;7.49;69.00;100759.63;4981396;28;20104;-79
2023/03/06 06:51:31;;;;;;;4.20;1.50;;;;;;;7.43;69.12;100761.19;4985157;28;20065;-79
2023/03/06 06:53:57;;;;;;;4.05;1.38;;;;;;;7.40;69.41;100756.81;5013033;22;20519;-43
2023/03/06 06:56:22;;;;;;;2.53;1.30;;;;;;;7.43;69.28;100762.06;5005912;28;20113;-45
2023/03/06 06:58:51;;;;;;;4.15;1.30;;;;;;;7.46;69.34;100762.13;5001064;28;20085;-44
2023/03/06 07:01:16;;;;;;;4.13;1.40;;;;;;;7.54;69.26;100762.31;5003891;28;20125;-47
2023/03/06 07:03:42;;;;;;;3.17;1.20;;;;;;;7.45;69.54;100762.09;5003823;28;20117;-43
2023/03/06 07:06:07;;;;;;;2.60;1.38;;;;;;;7.46;69.51;100771.63;5001527;28;20037;-44
2023/03/06 07:08:33;;;;;;;3.20;1.70;;;;;;;7.41;69.70;100762.88;5003622;28;20064;-43
2023/03/06 07:11:03;;;;;;;5.72;1.58;;;;;;;7.41;70.02;100768.94;5000415;28;20038;-44
2023/03/06 07:13:28;;;;;;;4.70;1.65;;;;;;;7.53;70.10;100769.22;5004047;28;20412;-44
2023/03/06 07:15:53;;;;;;;4.50;1.63;;;;;;;7.64;69.97;100762.56;5000858;28;20129;-44
2023/03/06 07:18:19;;;;;;;5.53;1.48;;;;;;;7.70;69.93;100765.31;5004239;28;20030;-44
2023/03/06 07:20:44;;;;;;;5.18;1.52;;;;;;;7.76;69.83;100761.97;5004021;28;20094;-54
2023/03/06 07:23:12;;;;;;;6.55;1.48;;;;;;;7.82;70.06;100762.09;5001123;28;20080;-44
2023/03/06 07:25:38;;;;;;;4.88;1.63;;;;;;;7.86;70.34;100757.88;5004335;28;20040;-46
2023/03/06 07:28:04;;;;;;;3.47;1.50;;;;;;;7.93;70.12;100759.78;5002535;28;20031;-45
2023/03/06 07:30:29;;;;;;;2.42;1.48;;;;;;;8.00;70.59;100759.91;5006494;28;20141;-43
2023/03/06 07:32:56;;;;;;;4.63;1.30;;;;;;;8.09;70.15;100754.06;5001515;28;20377;-44
2023/03/06 07:35:22;;;;;;;3.25;1.40;;;;;;;8.18;70.28;100758.56;5004505;28;20033;-48
2023/03/06 07:37:50;;;;;;;3.20;1.40;;;;;;;8.27;70.08;100754.44;5000144;28;20044;-43
2023/03/06 07:40:15;;;;;;;3.13;1.60;;;;;;;8.37;69.98;100756.41;4985885;28;20042;-45
2023/03/06 07:42:41;;;;;;;4.25;1.63;;;;;;;8.39;69.07;100753.84;5003963;28;20500;-45
2023/03/06 07:45:07;;;;;;;4.88;1.60;;;;;;;8.45;68.96;100752.25;5000023;28;20108;-42
2023/03/06 07:47:33;;;;;;;5.40;1.55;;;;;;;8.46;68.53;100753.13;5003698;28;20053;-45
2023/03/06 07:50:01;;;;;;;5.93;1.90;;;;;;;8.37;68.74;100753.81;5000054;28;20060;-48
2023/03/06 07:52:27;;;;;;;4.60;1.40;;;;;;;8.28;68.88;100761.41;5003487;28;20523;-45
2023/03/06 07:54:53;;;;;;;5.55;1.38;;;;;;;8.46;68.78;100761.81;5000370;28;20068;-47
2023/03/06 07:57:18;;;;;;;5.07;1.30;;;;;;;8.58;69.06;100755.97;5003158;28;20057;-44
2023/03/06 07:59:43;;;;;;;3.58;1.30;;;;;;;8.70;68.76;100753.63;5003039;28;20045;-44
2023/03/06 08:02:10;;;;;;;4.25;1.20;;;;;;;8.80;68.56;100752.03;5000528;28;20037;-41
2023/03/06 08:04:36;;;;;;;4.53;0.80;;;;;;;8.92;67.85;100758.34;5003393;28;20084;-44
2023/03/06 08:07:02;;;;;;;3.10;0.98;;;;;;;9.06;67.86;100750.81;5002691;28;20034;-45
2023/03/06 08:09:28;;;;;;;5.60;1.20;;;;;;;9.14;67.71;100753.53;5010274;28;20263;-43
2023/03/06 08:11:53;;;;;;;6.13;1.65;;;;;;;8.79;66.29;100753.78;5006411;28;20079;-49
2023/03/06 08:14:18;;;;;;;6.35;1.65;;;;;;;9.08;67.04;100749.13;5009249;28;20456;-44
2023/03/06 08:16:44;;;;;;;3.63;1.60;;;;;;;9.46;66.58;100751.44;5010318;28;20113;-46
2023/03/06 08:19:09;;;;;;;4.15;1.40;;;;;;;9.55;65.77;100759.41;5007418;28;20033;-43
2023/03/06 08:21:34;;;;;;;4.47;1.40;;;;;;;9.38;64.54;100756.56;5012719;28;20030;-43
2023/03/06 08:24:00;;;;;;;5.95;1.60;;;;;;;9.68;64.74;100764.84;5009065;28;20127;-43
2023/03/06 08:26:31;;;;;;;3.47;1.35;;;;;;;9.71;64.00;100758.78;5015577;28;20073;-47
2023/03/06 08:28:58;;;;;;;4.57;1.50;;;;;;;9.31;61.90;100759.91;5015513;28;20033;-42
2023/03/06 08:31:33;;;;;;;4.50;1.45;;;;;;;9.70;62.90;100755.31;5012881;28;20030;-48
2023/03/06 08:34:01;;;;;;;4.55;1.30;;;;;;;10.05;60.68;100753.22;5009010;28;20046;-44
2023/03/06 08:36:27;;;;;;;3.85;1.25;;;;;;;10.02;60.87;100752.28;5012675;28;20699;-42
2023/03/06 08:38:53;;;;;;;6.22;1.42;;;;;;;10.04;61.41;100753.19;4990498;28;20041;-42
2023/03/06 08:41:19;;;;;;;5.10;1.65;;;;;;;10.10;61.25;100750.66;5010436;28;20030;-45
2023/03/06 08:43:44;;;;;;;5.00;1.60;;;;;;;10.31;61.69;100755.28;5009621;28;20073;-43
2023/03/06 08:46:10;;;;;;;4.30;1.42;;;;;;;10.61;60.90;100760.03;5008673;28;20038;-45
2023/03/06 08:48:36;;;;;;;4.60;1.70;;;;;;;10.36;59.85;100754.53;5008261;28;20492;-44
2023/03/06 08:51:01;;;;;;;2.95;1.33;;;;;;;10.56;58.38;100749.53;5001188;28;20038;-42
2023/03/06 08:53:27;;;;;;;3.75;1.40;;;;;;;10.64;57.50;100758.31;5002552;28;20041;-46
2023/03/06 08:55:52;;;;;;;3.13;1.40;;;;;;;10.55;58.93;100748.66;5006916;28;20129;-51
2023/03/06 08:58:17;;;;;;;3.75;1.30;;;;;;;10.57;59.42;100752.16;5012002;28;20089;-46
2023/03/06 09:00:43;;;;;;;3.35;1.50;;;;;;;10.88;57.32;100745.53;5010515;28;20107;-45
2023/03/06 09:03:09;;;;;;;4.65;1.50;;;;;;;10.71;57.75;100748.84;5007292;28;20030;-47
2023/03/06 09:05:35;;;;;;;4.20;1.30;;;;;;;11.05;55.64;100745.69;5011508;28;20042;-44
2023/03/06 09:08:00;;;;;;;4.78;1.27;;;;;;;10.66;56.98;100746.19;5005076;28;20455;-45
2023/03/06 09:10:26;;;;;;;5.13;1.25;;;;;;;10.91;56.27;100748.19;5010473;28;20369;-43
2023/03/06 09:12:52;;;;;;;3.65;1.30;;;;;;;10.88;57.60;100752.50;4990505;28;20077;-46
2023/03/06 09:15:18;;;;;;;6.20;1.70;;;;;;;10.75;56.80;100748.88;4997623;28;20034;-43
2023/03/06 09:17:44;;;;;;;4.05;1.30;;;;;;;10.70;57.14;100749.69;5009481;28;20042;-43
2023/03/06 09:20:10;;;;;;;5.22;1.65;;;;;;;10.82;56.58;100755.03;5003077;28;20046;-44
2023/03/06 09:22:36;;;;;;;5.57;1.45;;;;;;;10.61;57.65;100754.81;5005847;28;20030;-44
2023/03/06 09:25:03;;;;;;;4.60;1.40;;;;;;;10.62;57.96;100749.59;5001593;28;20088;-45
2023/03/06 09:27:28;;;;;;;6.40;1.55;;;;;;;10.49;57.51;100751.19;5006326;28;20049;-44
2023/03/06 09:29:54;;;;;;;4.07;1.35;;;;;;;10.83;57.16;100747.22;5003059;28;20492;-45
2023/03/06 09:32:20;;;;;;;3.47;1.38;;;;;;;10.83;57.50;100743.75;5007421;28;20184;-48
2023/03/06 09:34:45;;;;;;;5.57;1.15;;;;;;;10.95;57.27;100744.75;5002887;28;20041;-48
2023/03/06 09:37:11;;;;;;;4.80;1.30;;;;;;;10.89;57.83;100752.50;5009072;28;20030;-44
2023/03/06 09:39:36;;;;;;;3.20;1.00;;;;;;;10.51;56.78;100748.59;5008341;28;20115;-45
2023/03/06 09:42:05;;;;;;;2.90;1.00;;;;;;;10.55;57.54;100750.41;5009011;28;20511;-44
2023/03/06 09:44:34;;;;;;;8.93;1.20;;;;;;;10.45;57.34;100754.63;5012566;28;20088;-45
2023/03/06 09:47:25;;;;;;;3.17;1.27;;;;;;;10.30;58.31;100751.84;5002813;28;20038;-43
2023/03/06 09:50:09;;;;;;;3.38;1.50;;;;;;;10.29;59.52;100746.59;5007591;28;20072;-47
2023/03/06 09:52:51;;;;;;;2.47;1.40;;;;;;;10.22;59.58;100752.59;5006413;28;20688;-44
2023/03/06 09:55:29;;;;;;;6.80;2.35;;;;;;;10.29;59.51;100746.59;4985635;28;20404;-45
2023/03/06 09:58:03;;;;;;;7.78;2.90;;;;;;;10.04;60.34;100741.06;4983077;28;20113;-46
2023/03/06 10:00:37;;;;;;;6.90;3.03;;;;;;;10.14;60.12;100742.03;4986893;28;20036;-44
2023/03/06 10:03:37;;;;;;;6.38;3.53;;;;;;;9.92;60.12;100745.22;4984871;28;20513;-46
2023/03/06 10:06:05;;;;;;;6.57;2.92;;;;;;;10.31;59.54;100748.34;4967660;28;20038;-44
2023/03/06 10:08:45;;;;;;;5.72;2.65;;;;;;;10.24;58.64;100745.69;4989267;28;20232;-45
2023/03/06 10:11:13;;;;;;;6.38;3.10;;;;;;;10.37;58.29;100739.78;4987636;28;20094;-45
2023/03/06 10:13:45;;;;;;;7.50;2.88;;;;;;;10.67;58.43;100737.50;4989289;28;20125;-43
2023/03/06 10:16:30;;;;;;;5.65;3.00;;;;;;;10.49;58.97;100735.53;4984734;28;20662;-45
2023/03/06 10:19:02;;;;;;;5.78;2.75;;;;;;;10.57;59.03;100727.81;4981234;28;20508;-43
2023/03/06 10:21:51;;;;;;;5.43;2.75;;;;;;;10.51;58.62;100728.63;4985543;28;20693;-43
2023/03/06 10:24:45;;;;;;;5.97;2.60;;;;;;;10.67;59.45;100723.59;4981494;28;20077;-45
2023/03/06 10:27:28;;;;;;;4.82;2.40;;;;;;;10.81;58.59;100733.28;4981365;28;20041;-50
2023/03/06 10:30:25;;;;;;;6.27;2.40;;;;;;;11.02;58.84;100719.59;4981081;28;20038;-45
2023/03/06 10:32:57;;;;;;;7.30;2.85;;;;;;;10.98;57.63;100721.28;4980817;28;20375;-44
2023/03/06 10:35:45;;;;;;;6.10;3.05;;;;;;;10.77;56.17;100718.47;4984707;28;20038;-43
2023/03/06 10:38:20;;;;;;;5.85;3.33;;;;;;;11.03;55.99;100715.25;4979867;28;20027;-46
2023/03/06 10:41:06;;;;;;;4.78;2.78;;;;;;;11.36;55.96;100707.69;4980481;28;20444;-53
2023/03/06 10:43:36;;;;;;;5.28;2.95;;;;;;;11.36;56.51;100713.78;4967184;28;20405;-43
2023/03/06 10:46:03;;;;;;;8.63;3.53;;;;;;;11.45;56.20;100704.28;4980814;28;20030;-42
2023/03/06 10:48:31;;;;;;;7.38;3.33;;;;;;;11.31;55.76;100706.78;4984453;28;20544;-46
2023/03/06 10:51:16;;;;;;;6.78;3.67;;;;;;;11.44;56.56;100702.53;4980517;28;20031;-43
2023/03/06 10:53:59;;;;;;;9.05;4.72;;;;;;;10.64;57.11;100700.97;4984383;28;20046;-45
2023/03/06 10:56:26;;;;;;;11.93;6.32;;;;;;;10.21;56.30;100694.41;4981231;28;20049;-43
2023/03/06 10:59:16;;;;;;;11.77;6.45;;;;;;;10.60;54.17;100695.72;4981174;28;20043;-43
2023/03/06 11:01:46;;;;;;;12.35;6.80;;;;;;;10.02;55.82;100697.59;4984770;28;20034;-43
2023/03/06 11:04:31;;;;;;;12.05;6.78;;;;;;;9.58;56.77;100696.97;4983004;28;20295;-43
2023/03/06 11:07:24;;;;;;;10.90;6.18;;;;;;;10.00;55.05;100688.91;4980920;28;20089;-44
2023/03/06 11:09:55;;;;;;;10.77;6.50;;;;;;;10.12;54.90;100683.84;4972781;28;20493;-42
2023/03/06 11:12:31;;;;;;;11.77;6.60;;;;;;;10.45;54.51;100684.25;4984830;28;20045;-43
2023/03/06 11:15:05;;;;;;;11.77;6.28;;;;;;;10.07;54.40;100685.50;4980619;28;20043;-47
2023/03/06 11:17:31;;;;;;;14.38;6.47;;;;;;;10.40;53.19;100674.63;4987421;28;20085;-50
2023/03/06 11:20:14;;;;;;;11.38;5.88;;;;;;;10.72;52.31;100669.75;4984418;28;20082;-41
2023/03/06 11:22:41;;;;;;;13.07;5.95;;;;;;;10.74;52.48;100671.50;4968289;28;20124;-45
2023/03/06 11:25:13;;;;;;;9.82;5.60;;;;;;;10.75;52.32;100664.56;4980622;28;20041;-44
2023/03/06 11:27:43;;;;;;;9.57;5.60;;;;;;;10.94;51.29;100672.56;4983978;28;20045;-45
2023/03/06 11:30:25;;;;;;;10.20;5.53;;;;;;;10.88;51.41;100667.28;4979595;28;20089;-44
2023/03/06 11:33:09;;;;;;;9.20;4.97;;;;;;;10.24;50.83;100668.41;4980375;28;20655;-45
2023/03/06 11:36:04;;;;;;;12.73;5.20;;;;;;;10.28;51.81;100664.09;4966531;28;20125;-45
2023/03/06 11:38:49;;;;;;;10.35;5.20;;;;;;;10.91;50.64;100659.50;4980433;28;20041;-43
2023/03/06 11:41:25;;;;;;;9.93;5.03;;;;;;;10.89;49.22;100652.53;4980789;28;20041;-45
2023/03/06 11:43:54;;;;;;;10.20;5.90;;;;;;;11.07;49.33;100657.88;4980220;28;20038;-47